Неизвестная ошибка (Warning): строка 43 файла /metar/Service/MetarService.php
Описание:
file_get_contents(https://www.aviationweather.gov/adds/metars/?station_ids=UNNT&std_trans=standard&chk_metars=on&hoursStr=most+recent+only&submitmet=Submit): Failed to open stream: HTTP request failed! HTTP/1.1 403 Forbidden
Трассировка:
 #1 metar/Service/MetarService.php, line=43, function=file_get_contents()
  #2 metar/Service/MetarService.php, line=18, function=getFromAviationweatherGov()
   #3 metar/index.php, line=30, function=getMetarString()
    #4 index.php, line=1, function=include()
Погода для параплана Кемерово под Лысую гору

Погода METAR - Новосибирск (Толмачево)

Кемерово, Абакан, Красноярск, Новосибирск
Код METAR: UNNT 031200Z 24005MPS CAVOK M07/M12 Q1023 R25/810260 R16/////// NOSIG RMK QFE757/1009

Погода - Сейчас

Время: 2024-03-03 19:00, местное
Направление ветра: Запад-юго-запад (240°)
Скорость ветра: 5 м/с
Видимость: более 10км, отсутствие осадков и облаков
Температура: -7°C
Точка росы: -12°C
Атмосферное давление: 1023 гПа

Архив погоды

Время, местное Направление Скорость, м/с Температура, °C Точка росы, °C Давление, гПа
2024-03-03 19:00 ЗЮЗ (240°) 5 -7 -12 1023
2024-03-03 18:30 ЮЗ (230°) 4 -7 -11 1022
2024-02-29 03:30 ЮЗ (210°) 6 -5 -8 1029
2024-02-22 17:00 ЗЮЗ (240°) 2 -18 -26 1043
2024-02-20 23:00 СЗ (320°) 1 -27 -30 1048
2024-02-17 12:30 ЮЗ (210°) 5 -24 -28 1035
2024-02-15 23:30 З (270°) 3 -30 -34 1018
2024-02-13 17:30 ЮЮЗ (200°) 5 -13 -18 1030
2024-02-06 22:30 ЮЮВ (150°) 2 -6 -11 1024
2024-02-05 08:00 ЮЗ (210°) 8 -4 -8 1019
2024-02-05 03:00 ЮЗ (230°) 9 -2 -5 1016
2024-02-03 19:00 ЮВ (140°) 6 -9 -12 1020
2024-02-02 22:00 ЮЮВ (150°) 4 -5 -10 1022
2024-01-27 23:00 ЮВ (140°) 4 -6 -9 1031
2024-01-27 09:00 ЮЮВ (160°) 3 -10 -14 1032
2024-01-19 05:00 ЮВ (130°) 1 -29 -32 1040
2024-01-18 18:30 СЗ (300°) 1 -24 -27 1044
2024-01-16 15:00 Ю (180°) 3 -22 -26 1039
2024-01-14 05:30 ЮЮВ (160°) 6 -7 -14 1003
2024-01-14 01:30 ЮВ (140°) 6 -10 -18 1008
2024-01-13 06:00 Ю (180°) 5 -14 -20 1017
2024-01-12 22:30 ЮЮВ (160°) 5 -18 -23 1025
2024-01-04 10:30 Переменный 1 -31 -34 1032
2023-12-30 02:00 ЮЗ (210°) 10, порывы до 15 1 -5 1003
2023-12-25 07:30 ЮВ (140°) 1 -10 -11 1019
2023-12-21 00:00 ЮЮВ (160°) 4 -7 -8 1027
2023-12-20 12:30 ЮЗ (210°) 5 -6 -8 1026
2023-12-18 09:00 Переменный 1 -35 -38 1047
2023-12-17 01:30 ССЗ (340°) 3 -24 -27 1041
2023-12-15 05:00 ЮЗ (210°) 4 -23 -27 1049
2023-12-13 14:00 ЮЮЗ (200°) 3 -29 -33 1059
2023-12-13 02:30 ССЗ (340°) 2 -34 -37 1056
2023-12-11 16:00 ССВ (20°) 4 -28 -31 1038
2023-12-11 06:00 С (10°) 3 -31 -35 1039
2023-12-08 14:30 Ю (190°) 2 -34 -38 1035
2023-12-07 05:30 СЗ (310°) 5 -24 -28 1015
2023-12-06 14:00 СВ (30°) 5 -11 -13 992
2023-12-06 03:30 СЗ (320°) 4 -6 -7 1005
2023-12-05 21:00 ЮВ (120°) 2 -7 -8 1006
2023-12-05 17:30 ЮВ (120°) 5 -9 -11 1009
2023-12-04 12:00 ЗСЗ (290°) 9 -12 -16 1013
2023-12-04 09:00 ЗСЗ (290°) 10 -9 -14 1005
2023-12-03 17:00 ЮЗ (210°) 8 1 0 991
2023-12-02 06:30 ЮЗ (230°) 6 -2 -5 1016
2023-12-01 19:00 ЮЗ (220°) 4 -1 -1 1019
2023-11-28 05:30 В (80°) 4 -5 -7 1038
2023-11-27 03:00 З (280°) 3 0 0 1031
2023-11-25 13:30 ЗЮЗ (250°) 10 -3 -6 1012